Time;durP1;ratioP1;P1;durP2;ratioP2;P2;SDS_P1;SDS_P2;PMS_P1;PMS_P2;Temp;Humidity;BMP_temperature;BMP_pressure;BME280_temperature;BME280_humidity;BME280_pressure;Samples;Min_cycle;Max_cycle;Signal;HPM_P1;HPM_P2
2023/09/11 00:02:21;;;;;;;;;;;;;;;;;;5005959;28;20379;-78
2023/09/11 00:04:47;;;;;;;;;;;;;;;;;;4996065;28;19917;-78
2023/09/11 00:07:14;;;;;;;;;;;;;;;;;;5005869;28;20436;-78
2023/09/11 00:09:40;;;;;;;;;;;;;;;;;;4997827;28;20000;-79
2023/09/11 00:12:06;;;;;;;;;;;;;;;;;;5012822;28;20302;-77
2023/09/11 00:14:32;;;;;;;;;;;;;;;;;;4994540;28;19918;-77
2023/09/11 00:16:57;;;;;;;;;;;;;;;;;;4988467;28;19929;-78
2023/09/11 00:19:23;;;;;;;;;;;;;;;;;;5004945;28;19932;-78
2023/09/11 00:21:49;;;;;;;;;;;;;;;;;;5005582;28;19917;-77
2023/09/11 00:24:15;;;;;;;;;;;;;;;;;;5003158;28;19921;-78
2023/09/11 00:26:41;;;;;;;;;;;;;;;;;;4994061;28;19949;-78
2023/09/11 00:29:07;;;;;;;;;;;;;;;;;;4993479;28;19964;-80
2023/09/11 00:31:33;;;;;;;;;;;;;;;;;;5010300;28;19918;-77
2023/09/11 00:33:59;;;;;;;;;;;;;;;;;;4997761;28;19918;-80
2023/09/11 00:36:24;;;;;;;;;;;;;;;;;;4994190;28;20347;-77
2023/09/11 00:38:51;;;;;;;;;;;;;;;;;;4994585;28;19944;-78
2023/09/11 00:41:17;;;;;;;;;;;;;;;;;;5002490;28;19921;-78
2023/09/11 00:43:42;;;;;;;;;;;;;;;;;;4997527;28;19914;-79
2023/09/11 00:46:08;;;;;;;;;;;;;;;;;;5001756;28;19909;-78
2023/09/11 00:48:34;;;;;;;;;;;;;;;;;;4994003;28;19933;-78
2023/09/11 00:51:00;;;;;;;;;;;;;;;;;;4994299;28;19910;-80
2023/09/11 00:53:26;;;;;;;;;;;;;;;;;;5005495;28;20027;-79
2023/09/11 00:55:52;;;;;;;;;;;;;;;;;;5005522;28;20357;-81
2023/09/11 00:58:18;;;;;;;;;;;;;;;;;;5013540;28;19919;-81
2023/09/11 01:00:44;;;;;;;;;;;;;;;;;;4996642;28;19918;-78
2023/09/11 01:03:10;;;;;;;;;;;;;;;;;;5003289;28;19909;-77
2023/09/11 01:05:36;;;;;;;;;;;;;;;;;;5004141;28;19924;-78
2023/09/11 01:08:02;;;;;;;;;;;;;;;;;;5005271;28;19987;-78
2023/09/11 01:10:28;;;;;;;;;;;;;;;;;;4999750;28;19960;-78
2023/09/11 01:12:54;;;;;;;;;;;;;;;;;;4996886;28;20266;-78
2023/09/11 01:15:20;;;;;;;;;;;;;;;;;;4995732;28;19922;-78
2023/09/11 01:17:46;;;;;;;;;;;;;;;;;;5002631;28;19913;-81
2023/09/11 01:20:12;;;;;;;;;;;;;;;;;;4997610;28;19952;-80
2023/09/11 01:22:38;;;;;;;;;;;;;;;;;;5003535;28;20323;-79
2023/09/11 01:25:04;;;;;;;;;;;;;;;;;;5003779;28;19955;-78
2023/09/11 01:27:30;;;;;;;;;;;;;;;;;;4991645;28;19921;-82
2023/09/11 01:29:55;;;;;;;;;;;;;;;;;;5005212;28;20278;-78
2023/09/11 01:32:21;;;;;;;;;;;;;;;;;;5004259;28;19960;-78
2023/09/11 01:34:47;;;;;;;;;;;;;;;;;;4991233;28;19924;-78
2023/09/11 01:37:13;;;;;;;;;;;;;;;;;;5001730;28;19917;-77
2023/09/11 01:39:39;;;;;;;;;;;;;;;;;;4992945;28;20040;-80
2023/09/11 01:42:05;;;;;;;;;;;;;;;;;;5003113;28;20000;-78
2023/09/11 01:44:31;;;;;;;;;;;;;;;;;;5000290;28;19909;-82
2023/09/11 01:46:57;;;;;;;;;;;;;;;;;;4994099;28;19913;-78
2023/09/11 01:49:23;;;;;;;;;;;;;;;;;;4997339;28;20388;-77
2023/09/11 01:51:49;;;;;;;;;;;;;;;;;;4996033;28;19914;-77
2023/09/11 01:54:15;;;;;;;;;;;;;;;;;;5009255;28;19940;-78
2023/09/11 01:56:41;;;;;;;;;;;;;;;;;;4992843;28;20444;-81
2023/09/11 01:59:07;;;;;;;;;;;;;;;;;;5010684;28;19913;-78
2023/09/11 02:01:33;;;;;;;;;;;;;;;;;;4992472;28;20362;-78
2023/09/11 02:03:58;;;;;;;;;;;;;;;;;;5001932;28;20004;-80
2023/09/11 02:06:24;;;;;;;;;;;;;;;;;;5002284;28;20366;-78
2023/09/11 02:08:50;;;;;;;;;;;;;;;;;;4994080;28;19910;-78
2023/09/11 02:11:16;;;;;;;;;;;;;;;;;;5015481;28;20327;-78
2023/09/11 02:13:42;;;;;;;;;;;;;;;;;;5000138;28;19913;-78
2023/09/11 02:16:08;;;;;;;;;;;;;;;;;;4993522;28;19917;-77
2023/09/11 02:18:34;;;;;;;;;;;;;;;;;;5013221;28;19910;-78
2023/09/11 02:21:00;;;;;;;;;;;;;;;;;;5007643;28;20413;-79
2023/09/11 02:23:26;;;;;;;;;;;;;;;;;;5009597;28;19945;-78
2023/09/11 02:25:53;;;;;;;;;;;;;;;;;;5016423;28;20008;-78
2023/09/11 02:28:19;;;;;;;;;;;;;;;;;;5009076;28;19971;-78
2023/09/11 02:30:44;;;;;;;;;;;;;;;;;;5000483;28;19914;-78
2023/09/11 02:33:10;;;;;;;;;;;;;;;;;;5002105;28;19913;-77
2023/09/11 02:35:36;;;;;;;;;;;;;;;;;;5012558;28;19915;-77
2023/09/11 02:38:02;;;;;;;;;;;;;;;;;;5004820;28;19909;-79
2023/09/11 02:40:28;;;;;;;;;;;;;;;;;;4996574;28;20433;-78
2023/09/11 02:42:54;;;;;;;;;;;;;;;;;;5016166;28;20028;-80
2023/09/11 02:45:20;;;;;;;;;;;;;;;;;;5011971;28;20615;-83
2023/09/11 02:47:46;;;;;;;;;;;;;;;;;;5012252;28;19913;-79
2023/09/11 02:50:12;;;;;;;;;;;;;;;;;;5007959;28;19914;-77
2023/09/11 02:52:38;;;;;;;;;;;;;;;;;;5012791;28;19980;-78
2023/09/11 02:55:04;;;;;;;;;;;;;;;;;;5002729;28;20343;-78
2023/09/11 02:57:29;;;;;;;;;;;;;;;;;;5014705;28;19987;-77
2023/09/11 02:59:55;;;;;;;;;;;;;;;;;;5011948;28;20220;-77
2023/09/11 03:02:21;;;;;;;;;;;;;;;;;;5000548;28;19921;-79
2023/09/11 03:04:47;;;;;;;;;;;;;;;;;;5007119;28;20753;-78
2023/09/11 03:07:17;;;;;;;;;;;;;;;;;;5002989;28;20349;-78
2023/09/11 03:09:43;;;;;;;;;;;;;;;;;;4998692;28;20365;-82
2023/09/11 03:12:09;;;;;;;;;;;;;;;;;;5002876;28;19914;-78
2023/09/11 03:14:34;;;;;;;;;;;;;;;;;;4996099;28;19976;-78
2023/09/11 03:17:01;;;;;;;;;;;;;;;;;;4996808;28;19922;-78
2023/09/11 03:19:26;;;;;;;;;;;;;;;;;;4999200;28;19910;-78
2023/09/11 03:21:52;;;;;;;;;;;;;;;;;;5000622;28;19924;-77
2023/09/11 03:24:18;;;;;;;;;;;;;;;;;;4996191;28;19914;-80
2023/09/11 03:26:44;;;;;;;;;;;;;;;;;;4995877;28;19910;-77
2023/09/11 03:29:10;;;;;;;;;;;;;;;;;;4996722;28;19916;-76
2023/09/11 03:31:36;;;;;;;;;;;;;;;;;;4996587;28;19917;-80
2023/09/11 03:34:02;;;;;;;;;;;;;;;;;;5007231;28;20012;-80
2023/09/11 03:36:28;;;;;;;;;;;;;;;;;;5015653;28;20392;-77
2023/09/11 03:38:53;;;;;;;;;;;;;;;;;;5008650;28;19910;-76
2023/09/11 03:41:19;;;;;;;;;;;;;;;;;;5010132;28;20541;-78
2023/09/11 03:43:45;;;;;;;;;;;;;;;;;;5006890;28;19909;-77
2023/09/11 03:46:14;;;;;;;;;;;;;;;;;;5006567;28;20366;-78
2023/09/11 03:48:40;;;;;;;;;;;;;;;;;;4995032;28;19991;-77
2023/09/11 03:51:06;;;;;;;;;;;;;;;;;;5006657;28;19921;-77
2023/09/11 03:53:33;;;;;;;;;;;;;;;;;;5011597;28;19918;-82
2023/09/11 03:55:59;;;;;;;;;;;;;;;;;;4992817;28;19945;-84
2023/09/11 03:58:25;;;;;;;;;;;;;;;;;;5005470;28;20249;-83
2023/09/11 04:00:51;;;;;;;;;;;;;;;;;;5007100;28;20381;-82
2023/09/11 04:03:17;;;;;;;;;;;;;;;;;;5008632;28;19963;-82
2023/09/11 04:05:43;;;;;;;;;;;;;;;;;;5010802;28;19910;-82
2023/09/11 04:08:09;;;;;;;;;;;;;;;;;;4997860;28;19917;-81
2023/09/11 04:10:35;;;;;;;;;;;;;;;;;;5013934;28;19917;-81
2023/09/11 04:13:01;;;;;;;;;;;;;;;;;;4995744;28;19971;-81
2023/09/11 04:15:26;;;;;;;;;;;;;;;;;;5005206;28;19959;-82
2023/09/11 04:17:54;;;;;;;;;;;;;;;;;;5013188;28;20425;-80
2023/09/11 04:20:20;;;;;;;;;;;;;;;;;;5012366;28;19935;-82
2023/09/11 04:22:46;;;;;;;;;;;;;;;;;;5012894;28;20810;-81
2023/09/11 04:25:12;;;;;;;;;;;;;;;;;;5008397;28;20008;-80
2023/09/11 04:27:38;;;;;;;;;;;;;;;;;;4991236;28;19968;-80
2023/09/11 04:30:04;;;;;;;;;;;;;;;;;;5006735;28;19929;-82
2023/09/11 04:32:30;;;;;;;;;;;;;;;;;;5011368;28;19983;-83
2023/09/11 04:34:56;;;;;;;;;;;;;;;;;;5010368;28;19917;-81
2023/09/11 04:37:22;;;;;;;;;;;;;;;;;;5007029;28;19917;-82
2023/09/11 04:39:48;;;;;;;;;;;;;;;;;;5009431;28;19910;-82
2023/09/11 04:42:14;;;;;;;;;;;;;;;;;;5007139;28;19913;-82
2023/09/11 04:44:40;;;;;;;;;;;;;;;;;;5002661;28;20771;-84
2023/09/11 04:47:06;;;;;;;;;;;;;;;;;;5009150;28;19964;-80
2023/09/11 04:49:32;;;;;;;;;;;;;;;;;;5007623;28;20005;-81
2023/09/11 04:51:58;;;;;;;;;;;;;;;;;;5009738;28;19914;-81
2023/09/11 04:54:23;;;;;;;;;;;;;;;;;;5001891;28;19921;-80
2023/09/11 04:56:50;;;;;;;;;;;;;;;;;;5000352;28;19928;-82
2023/09/11 04:59:16;;;;;;;;;;;;;;;;;;5004263;28;19933;-79
2023/09/11 05:01:42;;;;;;;;;;;;;;;;;;5001430;28;19914;-80
2023/09/11 05:04:08;;;;;;;;;;;;;;;;;;4997762;28;20052;-83
2023/09/11 05:06:34;;;;;;;;;;;;;;;;;;4992635;28;19942;-82
2023/09/11 05:09:00;;;;;;;;;;;;;;;;;;5005110;28;19917;-82
2023/09/11 05:11:26;;;;;;;;;;;;;;;;;;5007935;28;20000;-80
2023/09/11 05:13:52;;;;;;;;;;;;;;;;;;5000759;28;20009;-80
2023/09/11 05:16:18;;;;;;;;;;;;;;;;;;5016127;28;20337;-81
2023/09/11 05:18:44;;;;;;;;;;;;;;;;;;5001822;28;19913;-83
2023/09/11 05:21:10;;;;;;;;;;;;;;;;;;5009393;28;19913;-81
2023/09/11 05:23:36;;;;;;;;;;;;;;;;;;5008913;28;19917;-83
2023/09/11 05:26:03;;;;;;;;;;;;;;;;;;5010055;28;19914;-85
2023/09/11 05:28:29;;;;;;;;;;;;;;;;;;5024020;28;19918;-83
2023/09/11 05:30:55;;;;;;;;;;;;;;;;;;5022725;28;19914;-81
2023/09/11 05:33:21;;;;;;;;;;;;;;;;;;5011748;28;19921;-83
2023/09/11 05:35:46;;;;;;;;;;;;;;;;;;5009120;28;19917;-84
2023/09/11 05:38:12;;;;;;;;;;;;;;;;;;5001543;28;19923;-82
2023/09/11 05:40:40;;;;;;;;;;;;;;;;;;5000481;28;19918;-87
2023/09/11 05:43:05;;;;;;;;;;;;;;;;;;4998059;28;19909;-81
2023/09/11 05:45:31;;;;;;;;;;;;;;;;;;4999246;28;20480;-82
2023/09/11 05:47:57;;;;;;;;;;;;;;;;;;4998420;28;19913;-80
2023/09/11 05:50:23;;;;;;;;;;;;;;;;;;4996940;28;19910;-80
2023/09/11 05:52:49;;;;;;;;;;;;;;;;;;4995815;28;19927;-81
2023/09/11 05:55:15;;;;;;;;;;;;;;;;;;5011618;28;19968;-82
2023/09/11 05:57:42;;;;;;;;;;;;;;;;;;5004514;28;20123;-82
2023/09/11 06:00:12;;;;;;;;;;;;;;;;;;5005342;28;19920;-81
2023/09/11 06:02:38;;;;;;;;;;;;;;;;;;4997787;28;19913;-81
2023/09/11 06:05:05;;;;;;;;;;;;;;;;;;5002038;28;20068;-80
2023/09/11 06:07:31;;;;;;;;;;;;;;;;;;4998564;28;20368;-82
2023/09/11 06:09:57;;;;;;;;;;;;;;;;;;4988899;28;20706;-82
2023/09/11 06:12:23;;;;;;;;;;;;;;;;;;5010228;28;19961;-79
2023/09/11 06:14:49;;;;;;;;;;;;;;;;;;5003227;28;19959;-79
2023/09/11 06:17:15;;;;;;;;;;;;;;;;;;5005233;28;19913;-81
2023/09/11 06:19:41;;;;;;;;;;;;;;;;;;5003462;28;19956;-81
2023/09/11 06:22:06;;;;;;;;;;;;;;;;;;5005422;28;19929;-82
2023/09/11 06:24:32;;;;;;;;;;;;;;;;;;5006837;28;19931;-81
2023/09/11 06:26:59;;;;;;;;;;;;;;;;;;5009284;28;19909;-82
2023/09/11 06:29:25;;;;;;;;;;;;;;;;;;5008335;28;19935;-82
2023/09/11 06:31:50;;;;;;;;;;;;;;;;;;5004133;28;19916;-82
2023/09/11 06:34:22;;;;;;;;;;;;;;;;;;4998145;28;19989;-85
2023/09/11 06:36:47;;;;;;;;;;;;;;;;;;5005594;28;20385;-82
2023/09/11 06:39:14;;;;;;;;;;;;;;;;;;5000217;28;20473;-82
2023/09/11 06:41:41;;;;;;;;;;;;;;;;;;4998824;28;19910;-81
2023/09/11 06:44:07;;;;;;;;;;;;;;;;;;5006823;28;19914;-81
2023/09/11 06:46:33;;;;;;;;;;;;;;;;;;5003067;28;20235;-82
2023/09/11 06:48:59;;;;;;;;;;;;;;;;;;4990952;28;19917;-84
2023/09/11 06:51:25;;;;;;;;;;;;;;;;;;5009964;28;19921;-83
2023/09/11 06:53:53;;;;;;;;;;;;;;;;;;5002065;28;20333;-85
2023/09/11 06:56:19;;;;;;;;;;;;;;;;;;4994161;28;19921;-81
2023/09/11 06:58:45;;;;;;;;;;;;;;;;;;5008851;28;19909;-82
2023/09/11 07:01:11;;;;;;;;;;;;;;;;;;5000253;28;20227;-81
2023/09/11 07:03:37;;;;;;;;;;;;;;;;;;4999663;28;19910;-82
2023/09/11 07:06:03;;;;;;;;;;;;;;;;;;4999407;28;20285;-81
2023/09/11 07:08:29;;;;;;;;;;;;;;;;;;5008110;28;20404;-82
2023/09/11 07:10:55;;;;;;;;;;;;;;;;;;4999175;28;19996;-83
2023/09/11 07:13:22;;;;;;;;;;;;;;;;;;4999007;28;20362;-82
2023/09/11 07:15:48;;;;;;;;;;;;;;;;;;5002292;28;19913;-81
2023/09/11 07:18:14;;;;;;;;;;;;;;;;;;4997991;28;19921;-81
2023/09/11 07:20:40;;;;;;;;;;;;;;;;;;5001781;28;19920;-81
2023/09/11 07:23:06;;;;;;;;;;;;;;;;;;4995509;28;19917;-82
2023/09/11 07:25:32;;;;;;;;;;;;;;;;;;5002137;28;19910;-82
2023/09/11 07:27:58;;;;;;;;;;;;;;;;;;4991181;28;19914;-83
2023/09/11 07:30:23;;;;;;;;;;;;;;;;;;5007168;28;20101;-85
2023/09/11 07:32:51;;;;;;;;;;;;;;;;;;5006244;28;19932;-85
2023/09/11 07:35:17;;;;;;;;;;;;;;;;;;5003462;28;19928;-83
2023/09/11 07:37:43;;;;;;;;;;;;;;;;;;4998306;28;19913;-82
2023/09/11 07:40:09;;;;;;;;;;;;;;;;;;5010049;28;19913;-83
2023/09/11 07:42:36;;;;;;;;;;;;;;;;;;5008437;28;19914;-82
2023/09/11 07:45:02;;;;;;;;;;;;;;;;;;5007303;28;20222;-83
2023/09/11 07:47:28;;;;;;;;;;;;;;;;;;5007481;28;19909;-83
2023/09/11 07:49:53;;;;;;;;;;;;;;;;;;5007681;28;19913;-82
2023/09/11 07:52:19;;;;;;;;;;;;;;;;;;4997709;28;20310;-86
2023/09/11 07:54:45;;;;;;;;;;;;;;;;;;5003053;28;19921;-85
2023/09/11 07:57:12;;;;;;;;;;;;;;;;;;4999175;28;20357;-83
2023/09/11 07:59:38;;;;;;;;;;;;;;;;;;4995377;28;19966;-86
2023/09/11 08:02:04;;;;;;;;;;;;;;;;;;5012818;28;19910;-83
2023/09/11 08:04:30;;;;;;;;;;;;;;;;;;5010660;28;19913;-83
2023/09/11 08:06:56;;;;;;;;;;;;;;;;;;5005209;28;19910;-82
2023/09/11 08:09:22;;;;;;;;;;;;;;;;;;5008624;28;20753;-83
2023/09/11 08:11:49;;;;;;;;;;;;;;;;;;4994152;28;19910;-83
2023/09/11 08:14:14;;;;;;;;;;;;;;;;;;5000769;28;20001;-83
2023/09/11 08:16:40;;;;;;;;;;;;;;;;;;5012877;28;19955;-84
2023/09/11 08:19:06;;;;;;;;;;;;;;;;;;5006983;28;19917;-82
2023/09/11 08:21:32;;;;;;;;;;;;;;;;;;5004661;28;20328;-83
2023/09/11 08:23:58;;;;;;;;;;;;;;;;;;5012242;28;20412;-84
2023/09/11 08:26:24;;;;;;;;;;;;;;;;;;4999853;28;20093;-84
2023/09/11 08:28:50;;;;;;;;;;;;;;;;;;4999358;28;19918;-84
2023/09/11 08:31:16;;;;;;;;;;;;;;;;;;4998582;28;19952;-82
2023/09/11 08:33:42;;;;;;;;;;;;;;;;;;4999928;28;20025;-82
2023/09/11 08:36:09;;;;;;;;;;;;;;;;;;5013378;28;19929;-83
2023/09/11 08:38:35;;;;;;;;;;;;;;;;;;4998637;28;20000;-83
2023/09/11 08:41:01;;;;;;;;;;;;;;;;;;5003405;28;19953;-82
2023/09/11 08:43:27;;;;;;;;;;;;;;;;;;4998721;28;19914;-84
2023/09/11 08:45:53;;;;;;;;;;;;;;;;;;5010992;28;19914;-83
2023/09/11 08:48:21;;;;;;;;;;;;;;;;;;4999180;28;21005;-84
2023/09/11 08:50:47;;;;;;;;;;;;;;;;;;5006266;28;20283;-80
2023/09/11 08:53:12;;;;;;;;;;;;;;;;;;4994875;28;19933;-80
2023/09/11 08:55:38;;;;;;;;;;;;;;;;;;5007623;28;19953;-80
2023/09/11 08:58:04;;;;;;;;;;;;;;;;;;4998368;28;19920;-80
2023/09/11 09:00:31;;;;;;;;;;;;;;;;;;5009672;28;19940;-81
2023/09/11 09:02:57;;;;;;;;;;;;;;;;;;4994328;28;19960;-82
2023/09/11 09:05:23;;;;;;;;;;;;;;;;;;5000108;28;19909;-83
2023/09/11 09:07:49;;;;;;;;;;;;;;;;;;5000197;28;20429;-80
2023/09/11 09:10:15;;;;;;;;;;;;;;;;;;4999179;28;20013;-79
2023/09/11 09:12:41;;;;;;;;;;;;;;;;;;5005869;28;20277;-81
2023/09/11 09:15:07;;;;;;;;;;;;;;;;;;4996540;28;19920;-81
2023/09/11 09:17:33;;;;;;;;;;;;;;;;;;4999260;28;20377;-83
2023/09/11 09:19:59;;;;;;;;;;;;;;;;;;5005729;28;20290;-84
2023/09/11 09:22:26;;;;;;;;;;;;;;;;;;4993108;28;19916;-82
2023/09/11 09:24:52;;;;;;;;;;;;;;;;;;5002848;28;20493;-83
2023/09/11 09:27:18;;;;;;;;;;;;;;;;;;4999554;28;19940;-85
2023/09/11 09:29:44;;;;;;;;;;;;;;;;;;5009443;28;19910;-85
2023/09/11 09:32:11;;;;;;;;;;;;;;;;;;5011153;28;19917;-84
2023/09/11 09:34:37;;;;;;;;;;;;;;;;;;5007478;28;20043;-80
2023/09/11 09:37:03;;;;;;;;;;;;;;;;;;4998329;28;20024;-80
2023/09/11 09:39:29;;;;;;;;;;;;;;;;;;5001055;28;19914;-81
2023/09/11 09:41:55;;;;;;;;;;;;;;;;;;5009074;28;20020;-82
2023/09/11 09:44:21;;;;;;;;;;;;;;;;;;5005156;28;19921;-83
2023/09/11 09:46:47;;;;;;;;;;;;;;;;;;5003169;28;20227;-82
2023/09/11 09:49:13;;;;;;;;;;;;;;;;;;4992784;28;19969;-83
2023/09/11 09:51:39;;;;;;;;;;;;;;;;;;5004052;28;20670;-84
2023/09/11 09:54:05;;;;;;;;;;;;;;;;;;5004511;28;19921;-82
2023/09/11 09:56:31;;;;;;;;;;;;;;;;;;5001774;28;19981;-83
2023/09/11 09:58:56;;;;;;;;;;;;;;;;;;5008831;28;19918;-83
2023/09/11 10:01:23;;;;;;;;;;;;;;;;;;5025320;28;19918;-83
2023/09/11 10:03:49;;;;;;;;;;;;;;;;;;5025528;28;19913;-84
2023/09/11 10:06:16;;;;;;;;;;;;;;;;;;5035670;28;19980;-83
2023/09/11 10:08:41;;;;;;;;;;;;;;;;;;5024950;28;19913;-84
2023/09/11 10:11:07;;;;;;;;;;;;;;;;;;5015636;28;19984;-85
2023/09/11 10:13:33;;;;;;;;;;;;;;;;;;5002679;28;19913;-82
2023/09/11 10:16:00;;;;;;;;;;;;;;;;;;5000160;28;19933;-82
2023/09/11 10:18:25;;;;;;;;;;;;;;;;;;4996659;28;19910;-83
2023/09/11 10:20:51;;;;;;;;;;;;;;;;;;4995276;28;20334;-83
2023/09/11 10:23:17;;;;;;;;;;;;;;;;;;4999889;28;19910;-84
2023/09/11 10:25:43;;;;;;;;;;;;;;;;;;5000140;28;19913;-83
2023/09/11 10:28:09;;;;;;;;;;;;;;;;;;4999943;28;19996;-83
2023/09/11 10:30:35;;;;;;;;;;;;;;;;;;5017474;28;19956;-83
2023/09/11 10:33:01;;;;;;;;;;;;;;;;;;5009543;28;20360;-83
2023/09/11 10:35:28;;;;;;;;;;;;;;;;;;5000001;28;19980;-83
2023/09/11 10:37:57;;;;;;;;;;;;;;;;;;5001400;28;19951;-82
2023/09/11 10:40:23;;;;;;;;;;;;;;;;;;4998481;28;19992;-83
2023/09/11 10:42:49;;;;;;;;;;;;;;;;;;5006581;28;20000;-82
2023/09/11 10:45:15;;;;;;;;;;;;;;;;;;5013075;28;19956;-85
2023/09/11 10:47:41;;;;;;;;;;;;;;;;;;5004531;28;20040;-83
2023/09/11 10:50:07;;;;;;;;;;;;;;;;;;4999732;28;20231;-85
2023/09/11 10:52:33;;;;;;;;;;;;;;;;;;5002100;28;19920;-84
2023/09/11 10:54:58;;;;;;;;;;;;;;;;;;4995799;28;19944;-84
2023/09/11 10:57:27;;;;;;;;;;;;;;;;;;4996477;28;19910;-80
2023/09/11 10:59:54;;;;;;;;;;;;;;;;;;4995903;28;20717;-80
2023/09/11 11:02:19;;;;;;;;;;;;;;;;;;5007971;28;19971;-82
2023/09/11 11:04:46;;;;;;;;;;;;;;;;;;5005414;28;19997;-84
2023/09/11 11:07:12;;;;;;;;;;;;;;;;;;5002403;28;20285;-79
2023/09/11 11:09:37;;;;;;;;;;;;;;;;;;5003077;28;19954;-81
2023/09/11 11:12:05;;;;;;;;;;;;;;;;;;5005105;28;19952;-86
2023/09/11 11:14:31;;;;;;;;;;;;;;;;;;5010330;28;19918;-84
2023/09/11 11:16:59;;;;;;;;;;;;;;;;;;5005059;28;20424;-81
2023/09/11 11:19:25;;;;;;;;;;;;;;;;;;5008755;28;19933;-82
2023/09/11 11:21:51;;;;;;;;;;;;;;;;;;5001710;28;20251;-82
2023/09/11 11:24:17;;;;;;;;;;;;;;;;;;5007748;28;19920;-80
2023/09/11 11:26:43;;;;;;;;;;;;;;;;;;5008745;28;19913;-82
2023/09/11 11:29:09;;;;;;;;;;;;;;;;;;5003391;28;20266;-82
2023/09/11 11:31:35;;;;;;;;;;;;;;;;;;4997152;28;19914;-80
2023/09/11 11:34:01;;;;;;;;;;;;;;;;;;5000354;28;20015;-81
2023/09/11 11:36:27;;;;;;;;;;;;;;;;;;4994641;28;20567;-82
2023/09/11 11:38:54;;;;;;;;;;;;;;;;;;5009173;28;19990;-82
2023/09/11 11:41:20;;;;;;;;;;;;;;;;;;5003508;28;20425;-84
2023/09/11 11:43:46;;;;;;;;;;;;;;;;;;5013733;28;20004;-84
2023/09/11 11:46:13;;;;;;;;;;;;;;;;;;4998509;28;19913;-81
2023/09/11 11:48:39;;;;;;;;;;;;;;;;;;5003763;28;19916;-85
2023/09/11 11:51:04;;;;;;;;;;;;;;;;;;5004097;28;21229;-83
2023/09/11 11:53:30;;;;;;;;;;;;;;;;;;5005051;28;19922;-83
2023/09/11 11:55:56;;;;;;;;;;;;;;;;;;5007539;28;19921;-86
2023/09/11 11:58:22;;;;;;;;;;;;;;;;;;5007376;28;19999;-83
2023/09/11 12:00:48;;;;;;;;;;;;;;;;;;5007659;28;19972;-82
2023/09/11 12:03:14;;;;;;;;;;;;;;;;;;5006591;28;20009;-81
2023/09/11 12:05:40;;;;;;;;;;;;;;;;;;5009064;28;19968;-83
2023/09/11 12:08:09;;;;;;;;;;;;;;;;;;5002238;28;20385;-82
2023/09/11 12:10:40;;;;;;;;;;;;;;;;;;5015368;28;19941;-84
2023/09/11 12:13:06;;;;;;;;;;;;;;;;;;5021302;28;19909;-85
2023/09/11 12:15:32;;;;;;;;;;;;;;;;;;5006066;28;19913;-80
2023/09/11 12:17:58;;;;;;;;;;;;;;;;;;5014126;28;19992;-78
2023/09/11 12:20:24;;;;;;;;;;;;;;;;;;5016580;28;19913;-79
2023/09/11 12:22:50;;;;;;;;;;;;;;;;;;5008647;28;19937;-79
2023/09/11 12:25:16;;;;;;;;;;;;;;;;;;5013836;28;20270;-79
2023/09/11 12:27:42;;;;;;;;;;;;;;;;;;4999470;28;20013;-80
2023/09/11 12:30:08;;;;;;;;;;;;;;;;;;5009910;28;19909;-79
2023/09/11 12:32:34;;;;;;;;;;;;;;;;;;5010750;28;19916;-80
2023/09/11 12:35:00;;;;;;;;;;;;;;;;;;5008415;28;19914;-80
2023/09/11 12:37:25;;;;;;;;;;;;;;;;;;5003736;28;19916;-81
2023/09/11 12:39:51;;;;;;;;;;;;;;;;;;5007021;28;20421;-81
2023/09/11 12:42:17;;;;;;;;;;;;;;;;;;4994710;28;19917;-80
2023/09/11 12:44:43;;;;;;;;;;;;;;;;;;5005476;28;19921;-82
2023/09/11 12:47:09;;;;;;;;;;;;;;;;;;5007444;28;20521;-81
2023/09/11 12:49:36;;;;;;;;;;;;;;;;;;4994222;28;19914;-80
2023/09/11 12:52:02;;;;;;;;;;;;;;;;;;5004259;28;20716;-85
2023/09/11 12:54:31;;;;;;;;;;;;;;;;;;5001723;28;20021;-82
2023/09/11 12:56:57;;;;;;;;;;;;;;;;;;5018637;28;20662;-84
2023/09/11 12:59:23;;;;;;;;;;;;;;;;;;5004890;28;19994;-81
2023/09/11 13:01:49;;;;;;;;;;;;;;;;;;5001426;28;19922;-84
2023/09/11 13:04:15;;;;;;;;;;;;;;;;;;5003669;28;19926;-83
2023/09/11 13:06:41;;;;;;;;;;;;;;;;;;5006575;28;19918;-83
2023/09/11 13:09:12;;;;;;;;;;;;;;;;;;5007081;28;19933;-80
2023/09/11 13:11:38;;;;;;;;;;;;;;;;;;4994872;28;20433;-86
2023/09/11 13:14:04;;;;;;;;;;;;;;;;;;4996009;28;19972;-84
2023/09/11 13:16:30;;;;;;;;;;;;;;;;;;5006788;28;19918;-82
2023/09/11 13:18:56;;;;;;;;;;;;;;;;;;5005845;28;19963;-84
2023/09/11 13:21:22;;;;;;;;;;;;;;;;;;4991261;28;19959;-83
2023/09/11 13:23:48;;;;;;;;;;;;;;;;;;5013159;28;20222;-82
2023/09/11 13:26:13;;;;;;;;;;;;;;;;;;4998916;28;19913;-84
2023/09/11 13:28:39;;;;;;;;;;;;;;;;;;5007863;28;19920;-85
2023/09/11 13:31:05;;;;;;;;;;;;;;;;;;4990878;28;19921;-82
2023/09/11 13:33:31;;;;;;;;;;;;;;;;;;5003564;28;19976;-81
2023/09/11 13:35:57;;;;;;;;;;;;;;;;;;5007309;28;19918;-83
2023/09/11 13:38:23;;;;;;;;;;;;;;;;;;4999688;28;20037;-83
2023/09/11 13:40:49;;;;;;;;;;;;;;;;;;4995896;28;19964;-82
2023/09/11 13:43:15;;;;;;;;;;;;;;;;;;5004036;28;19923;-82
2023/09/11 13:45:41;;;;;;;;;;;;;;;;;;4989715;28;19968;-82
2023/09/11 13:48:06;;;;;;;;;;;;;;;;;;4998475;28;20009;-82
2023/09/11 13:50:32;;;;;;;;;;;;;;;;;;5005080;28;19914;-85
2023/09/11 13:52:58;;;;;;;;;;;;;;;;;;4996851;28;19936;-83
2023/09/11 13:55:24;;;;;;;;;;;;;;;;;;5006524;28;20396;-82
2023/09/11 13:57:50;;;;;;;;;;;;;;;;;;5006805;28;19917;-81
2023/09/11 14:03:01;;;;;;;;;;;;;;;;;;4993555;28;20357;-84
2023/09/11 14:05:26;;;;;;;;;;;;;;;;;;5000633;28;19914;-85
2023/09/11 14:07:52;;;;;;;;;;;;;;;;;;4991253;28;19910;-85
2023/09/11 14:10:18;;;;;;;;;;;;;;;;;;5006024;28;19956;-86
2023/09/11 14:12:44;;;;;;;;;;;;;;;;;;5006039;28;19920;-85
2023/09/11 14:15:11;;;;;;;;;;;;;;;;;;4991862;28;19956;-84
2023/09/11 14:17:37;;;;;;;;;;;;;;;;;;4999809;28;19956;-83
2023/09/11 14:20:07;;;;;;;;;;;;;;;;;;5007658;28;20376;-85
2023/09/11 14:22:33;;;;;;;;;;;;;;;;;;4995431;28;19917;-83
2023/09/11 14:24:59;;;;;;;;;;;;;;;;;;5005983;28;19910;-82
2023/09/11 14:27:25;;;;;;;;;;;;;;;;;;5009951;28;20286;-84
2023/09/11 14:29:51;;;;;;;;;;;;;;;;;;5024785;28;19928;-84
2023/09/11 14:32:17;;;;;;;;;;;;;;;;;;5026890;28;19964;-85
2023/09/11 14:34:43;;;;;;;;;;;;;;;;;;5014918;28;19937;-82
2023/09/11 14:37:09;;;;;;;;;;;;;;;;;;5001593;28;20327;-85
2023/09/11 14:39:35;;;;;;;;;;;;;;;;;;5012401;28;19909;-82
2023/09/11 14:42:01;;;;;;;;;;;;;;;;;;5008123;28;19997;-82
2023/09/11 14:44:27;;;;;;;;;;;;;;;;;;5000173;28;20055;-85
2023/09/11 14:46:53;;;;;;;;;;;;;;;;;;5008266;28;19925;-82
2023/09/11 14:49:19;;;;;;;;;;;;;;;;;;4999115;28;19914;-83
2023/09/11 14:51:45;;;;;;;;;;;;;;;;;;5002201;28;19922;-82
2023/09/11 14:54:11;;;;;;;;;;;;;;;;;;5000499;28;20056;-82
2023/09/11 14:56:37;;;;;;;;;;;;;;;;;;5010738;28;19980;-82
2023/09/11 14:59:03;;;;;;;;;;;;;;;;;;5006899;28;19914;-84
2023/09/11 15:01:29;;;;;;;;;;;;;;;;;;4994146;28;20008;-82
2023/09/11 15:03:55;;;;;;;;;;;;;;;;;;5007398;28;20366;-83
2023/09/11 15:06:26;;;;;;;;;;;;;;;;;;4998283;28;20358;-83
2023/09/11 15:08:53;;;;;;;;;;;;;;;;;;4999133;28;20389;-83
2023/09/11 15:11:18;;;;;;;;;;;;;;;;;;5002102;28;19961;-84
2023/09/11 15:13:44;;;;;;;;;;;;;;;;;;5010759;28;19987;-82
2023/09/11 15:16:10;;;;;;;;;;;;;;;;;;4999763;28;19913;-83
2023/09/11 15:18:36;;;;;;;;;;;;;;;;;;4999375;28;20016;-82
2023/09/11 15:21:02;;;;;;;;;;;;;;;;;;5004536;28;19914;-83
2023/09/11 15:23:28;;;;;;;;;;;;;;;;;;4999164;28;19993;-87
2023/09/11 15:25:54;;;;;;;;;;;;;;;;;;4996790;28;20350;-87
2023/09/11 15:28:20;;;;;;;;;;;;;;;;;;5007173;28;19914;-86
2023/09/11 15:30:45;;;;;;;;;;;;;;;;;;4999905;28;19913;-87
2023/09/11 15:33:12;;;;;;;;;;;;;;;;;;5003680;28;20436;-87
2023/09/11 15:35:37;;;;;;;;;;;;;;;;;;4999146;28;19913;-84
2023/09/11 15:38:04;;;;;;;;;;;;;;;;;;5013231;28;19909;-85
2023/09/11 15:40:29;;;;;;;;;;;;;;;;;;4999561;28;19982;-85
2023/09/11 15:42:55;;;;;;;;;;;;;;;;;;4999428;28;19947;-85
2023/09/11 15:45:21;;;;;;;;;;;;;;;;;;5002955;28;19921;-85
2023/09/11 15:47:47;;;;;;;;;;;;;;;;;;5011092;28;20381;-85
2023/09/11 15:50:13;;;;;;;;;;;;;;;;;;4998947;28;19960;-84
2023/09/11 15:52:41;;;;;;;;;;;;;;;;;;5010553;28;19910;-84
2023/09/11 15:55:07;;;;;;;;;;;;;;;;;;5013733;28;19928;-85
2023/09/11 15:57:32;;;;;;;;;;;;;;;;;;5002248;28;19969;-86
2023/09/11 15:59:58;;;;;;;;;;;;;;;;;;5004971;28;19992;-85
2023/09/11 16:02:24;;;;;;;;;;;;;;;;;;5005522;28;19910;-85
2023/09/11 16:04:50;;;;;;;;;;;;;;;;;;5007139;28;19914;-85
2023/09/11 16:07:16;;;;;;;;;;;;;;;;;;5007204;28;19996;-85
2023/09/11 16:09:42;;;;;;;;;;;;;;;;;;5012636;28;19913;-84
2023/09/11 16:12:08;;;;;;;;;;;;;;;;;;5004895;28;19964;-85
2023/09/11 16:14:34;;;;;;;;;;;;;;;;;;5008194;28;19917;-85
2023/09/11 16:17:00;;;;;;;;;;;;;;;;;;5012344;28;19909;-85
2023/09/11 16:19:25;;;;;;;;;;;;;;;;;;5004591;28;20012;-84
2023/09/11 16:21:51;;;;;;;;;;;;;;;;;;5002026;28;19913;-84
2023/09/11 16:24:17;;;;;;;;;;;;;;;;;;5006048;28;19949;-84
2023/09/11 16:26:43;;;;;;;;;;;;;;;;;;4993553;28;19910;-84
2023/09/11 16:29:09;;;;;;;;;;;;;;;;;;5002611;28;19917;-84
2023/09/11 16:31:35;;;;;;;;;;;;;;;;;;5016634;28;19910;-84
2023/09/11 16:34:01;;;;;;;;;;;;;;;;;;5006690;28;19917;-84
2023/09/11 16:36:27;;;;;;;;;;;;;;;;;;4998752;28;19917;-84
2023/09/11 16:38:53;;;;;;;;;;;;;;;;;;5006379;28;20656;-84
2023/09/11 16:41:19;;;;;;;;;;;;;;;;;;4994892;28;19913;-84